createdAt,value
2023-04-03T00:01:19.921Z,8.40
2023-04-03T00:04:07.784Z,8.39
2023-04-03T00:06:40.005Z,8.37
2023-04-03T00:09:09.451Z,8.30
2023-04-03T00:11:42.690Z,8.37
2023-04-03T00:14:10.977Z,8.48
2023-04-03T00:16:57.851Z,8.55
2023-04-03T00:19:26.793Z,8.58
2023-04-03T00:21:55.452Z,8.50
2023-04-03T00:24:23.463Z,8.41
2023-04-03T00:26:59.718Z,8.31
2023-04-03T00:29:28.950Z,8.22
2023-04-03T00:31:56.959Z,8.24
2023-04-03T00:34:26.284Z,8.28
2023-04-03T00:36:55.623Z,8.25
2023-04-03T00:39:23.961Z,8.21
2023-04-03T00:41:57.046Z,8.20
2023-04-03T00:44:34.643Z,8.21
2023-04-03T00:47:03.342Z,8.19
2023-04-03T00:49:32.127Z,8.14
2023-04-03T00:52:00.620Z,8.15
2023-04-03T00:54:29.148Z,8.24
2023-04-03T00:56:58.629Z,8.26
2023-04-03T00:59:32.489Z,8.27
2023-04-03T01:02:01.754Z,8.26
2023-04-03T01:04:32.346Z,8.28
2023-04-03T01:07:02.931Z,8.33
2023-04-03T01:09:31.334Z,8.40
2023-04-03T01:12:19.595Z,8.50
2023-04-03T01:14:53.574Z,8.55
2023-04-03T01:17:37.985Z,8.55
2023-04-03T01:20:12.680Z,8.59
2023-04-03T01:23:02.967Z,8.63
2023-04-03T01:25:31.033Z,8.59
2023-04-03T01:28:00.397Z,8.49
2023-04-03T01:30:33.638Z,8.52
2023-04-03T01:33:02.533Z,8.50
2023-04-03T01:35:31.050Z,8.49
2023-04-03T01:37:59.382Z,8.47
2023-04-03T01:40:27.478Z,8.45
2023-04-03T01:42:55.599Z,8.44
2023-04-03T01:45:23.726Z,8.45
2023-04-03T01:47:52.141Z,8.47
2023-04-03T01:50:20.644Z,8.50
2023-04-03T01:52:49.348Z,8.57
2023-04-03T01:55:17.615Z,8.67
2023-04-03T01:57:45.973Z,8.65
2023-04-03T02:00:14.800Z,8.56
2023-04-03T02:02:43.486Z,8.57
2023-04-03T02:05:11.731Z,8.63
2023-04-03T02:07:44.847Z,8.64
2023-04-03T02:10:13.431Z,8.71
2023-04-03T02:12:41.914Z,8.78
2023-04-03T02:15:10.725Z,8.83
2023-04-03T02:17:38.980Z,8.83
2023-04-03T02:20:08.084Z,8.81
2023-04-03T02:22:38.231Z,8.81
2023-04-03T02:25:06.358Z,8.83
2023-04-03T02:27:36.693Z,8.80
2023-04-03T02:30:05.567Z,8.78
2023-04-03T02:32:34.009Z,8.76
2023-04-03T02:35:02.919Z,8.79
2023-04-03T02:37:31.723Z,8.81
2023-04-03T02:40:00.338Z,8.80
2023-04-03T02:42:30.241Z,8.81
2023-04-03T02:44:59.484Z,8.77
2023-04-03T02:47:29.205Z,8.69
2023-04-03T02:49:57.426Z,8.70
2023-04-03T02:52:26.421Z,8.65
2023-04-03T02:54:55.614Z,8.63
2023-04-03T02:57:23.810Z,8.64
2023-04-03T02:59:52.043Z,8.66
2023-04-03T03:02:20.641Z,8.66
2023-04-03T03:04:48.920Z,8.70
2023-04-03T03:07:20.896Z,8.73
2023-04-03T03:09:49.073Z,8.71
2023-04-03T03:12:17.241Z,8.67
2023-04-03T03:14:48.991Z,8.66
2023-04-03T03:17:17.722Z,8.66
2023-04-03T03:19:46.883Z,8.69
2023-04-03T03:22:15.565Z,8.68
2023-04-03T03:24:43.848Z,8.69
2023-04-03T03:27:13.460Z,8.69
2023-04-03T03:29:41.966Z,8.76
2023-04-03T03:32:10.741Z,8.76
2023-04-03T03:34:39.564Z,8.78
2023-04-03T03:37:07.751Z,8.82
2023-04-03T03:39:36.763Z,8.86
2023-04-03T03:42:04.771Z,8.83
2023-04-03T03:44:33.080Z,8.84
2023-04-03T03:47:01.852Z,8.88
2023-04-03T03:49:30.448Z,8.88
2023-04-03T03:51:58.410Z,8.87
2023-04-03T03:54:26.843Z,8.84
2023-04-03T03:56:55.030Z,8.82
2023-04-03T03:59:26.055Z,8.78
2023-04-03T04:01:54.489Z,8.77
2023-04-03T04:04:22.986Z,8.77
2023-04-03T04:06:52.866Z,8.75
2023-04-03T04:09:22.357Z,8.71
2023-04-03T04:11:50.571Z,8.70
2023-04-03T04:14:19.017Z,8.69
2023-04-03T04:16:48.457Z,8.67
2023-04-03T04:19:19.044Z,8.63
2023-04-03T04:21:47.863Z,8.67
2023-04-03T04:24:16.714Z,8.70
2023-04-03T04:26:44.739Z,8.71
2023-04-03T04:29:14.008Z,8.72
2023-04-03T04:31:42.275Z,8.73
2023-04-03T04:34:11.165Z,8.76
2023-04-03T04:36:40.780Z,8.80
2023-04-03T04:39:12.836Z,8.81
2023-04-03T04:41:41.434Z,8.81
2023-04-03T04:44:09.971Z,8.78
2023-04-03T04:46:40.873Z,8.73
2023-04-03T04:49:09.201Z,8.68
2023-04-03T04:51:48.297Z,8.66
2023-04-03T04:54:20.419Z,8.64
2023-04-03T04:56:50.944Z,8.64
2023-04-03T04:59:22.924Z,8.70
2023-04-03T05:01:51.059Z,8.81
2023-04-03T05:04:19.181Z,8.89
2023-04-03T05:06:49.752Z,8.93
2023-04-03T05:09:21.192Z,8.96
2023-04-03T05:11:50.938Z,9.00
2023-04-03T05:14:20.516Z,9.01
2023-04-03T05:16:50.832Z,9.02
2023-04-03T05:19:22.719Z,9.07
2023-04-03T05:21:51.026Z,9.12
2023-04-03T05:24:20.247Z,9.19
2023-04-03T05:26:48.603Z,9.13
2023-04-03T05:29:17.423Z,9.07
2023-04-03T05:31:45.648Z,9.10
2023-04-03T05:34:14.868Z,9.13
2023-04-03T05:36:43.970Z,9.17
2023-04-03T05:39:12.848Z,9.21
2023-04-03T05:41:43.260Z,9.25
2023-04-03T05:44:11.855Z,9.24
2023-04-03T05:46:40.552Z,9.23
2023-04-03T05:49:09.734Z,9.20
2023-04-03T05:51:39.453Z,9.21
2023-04-03T05:54:28.528Z,9.20
2023-04-03T05:57:05.500Z,9.14
2023-04-03T05:59:33.977Z,9.15
2023-04-03T06:02:02.240Z,9.14
2023-04-03T06:04:31.049Z,9.14
2023-04-03T06:06:59.308Z,9.18
2023-04-03T06:09:30.183Z,9.22
2023-04-03T06:12:01.188Z,9.28
2023-04-03T06:14:29.760Z,9.31
2023-04-03T06:17:01.014Z,9.34
2023-04-03T06:19:29.198Z,9.43
2023-04-03T06:21:58.176Z,9.53
2023-04-03T06:24:27.298Z,9.60
2023-04-03T06:26:55.780Z,9.67
2023-04-03T06:29:25.302Z,9.73
2023-04-03T06:31:53.325Z,9.74
2023-04-03T06:34:21.565Z,9.74
2023-04-03T06:36:52.440Z,9.80
2023-04-03T06:39:22.257Z,9.84
2023-04-03T06:41:51.789Z,9.83
2023-04-03T06:44:20.168Z,9.85
2023-04-03T06:46:49.959Z,9.88
2023-04-03T06:49:18.026Z,9.91
2023-04-03T06:51:46.357Z,9.85
2023-04-03T06:54:16.000Z,9.83
2023-04-03T06:56:44.142Z,9.85
2023-04-03T06:59:16.842Z,9.90
2023-04-03T07:01:45.590Z,9.94
2023-04-03T07:04:14.988Z,9.99
2023-04-03T07:06:43.764Z,10.03
2023-04-03T07:09:12.533Z,10.05
2023-04-03T07:14:04.606Z,9.96
2023-04-03T07:16:33.047Z,9.89
2023-04-03T07:19:02.766Z,9.88
2023-04-03T07:21:30.945Z,9.78
2023-04-03T07:23:59.373Z,9.74
2023-04-03T07:26:28.564Z,9.77
2023-04-03T07:28:56.704Z,9.84
2023-04-03T07:31:26.616Z,9.89
2023-04-03T07:33:55.058Z,9.98
2023-04-03T07:36:23.392Z,10.10
2023-04-03T07:38:51.638Z,10.12
2023-04-03T07:41:21.168Z,10.09
2023-04-03T07:43:50.837Z,10.07
2023-04-03T07:46:19.734Z,10.09
2023-04-03T07:48:47.972Z,10.14
2023-04-03T07:51:16.154Z,10.19
2023-04-03T07:53:49.743Z,10.28
2023-04-03T07:56:18.265Z,10.33
2023-04-03T07:58:47.771Z,10.36
2023-04-03T08:01:15.965Z,10.39
2023-04-03T08:03:45.684Z,10.48
2023-04-03T08:06:16.988Z,10.52
2023-04-03T08:08:48.405Z,10.45
2023-04-03T08:11:16.662Z,10.42
2023-04-03T08:13:45.159Z,10.41
2023-04-03T08:16:19.352Z,10.35
2023-04-03T08:18:47.637Z,10.30
2023-04-03T08:21:15.724Z,10.32
2023-04-03T08:23:44.100Z,10.25
2023-04-03T08:26:14.038Z,10.20
2023-04-03T08:28:44.798Z,10.19
2023-04-03T08:31:18.181Z,10.23
2023-04-03T08:33:47.705Z,10.25
2023-04-03T08:36:20.598Z,10.24
2023-04-03T08:38:49.934Z,10.37
2023-04-03T08:41:22.780Z,10.51
2023-04-03T08:43:58.072Z,10.59
2023-04-03T08:46:55.328Z,10.56
2023-04-03T08:49:36.815Z,10.61
2023-04-03T08:52:08.900Z,10.64
2023-04-03T08:55:04.225Z,10.67
2023-04-03T08:57:45.610Z,10.65
2023-04-03T09:00:22.060Z,10.57
2023-04-03T09:02:52.136Z,10.55
2023-04-03T09:05:33.764Z,10.53
2023-04-03T09:08:06.919Z,10.49
2023-04-03T09:10:36.322Z,10.41
2023-04-03T09:13:22.240Z,10.38
2023-04-03T09:15:55.443Z,10.46
2023-04-03T09:18:34.410Z,10.57
2023-04-03T09:21:32.564Z,10.69
2023-04-03T09:24:01.693Z,10.76
2023-04-03T09:26:40.601Z,10.81
2023-04-03T09:29:09.510Z,10.91
2023-04-03T09:31:41.136Z,10.97
2023-04-03T09:34:30.415Z,11.00
2023-04-03T09:37:00.210Z,11.01
2023-04-03T09:39:29.586Z,11.06
2023-04-03T09:42:02.283Z,11.13
2023-04-03T09:44:40.058Z,11.21
2023-04-03T09:47:24.099Z,11.32
2023-04-03T09:49:52.965Z,11.47
2023-04-03T09:52:24.268Z,11.57
2023-04-03T09:54:52.200Z,11.61
2023-04-03T09:57:21.598Z,11.51
2023-04-03T10:00:00.809Z,11.45
2023-04-03T10:02:32.172Z,11.38
2023-04-03T10:05:09.466Z,11.33
2023-04-03T10:07:38.930Z,11.33
2023-04-03T10:10:27.353Z,11.45
2023-04-03T10:13:12.215Z,11.51
2023-04-03T10:16:03.205Z,11.47
2023-04-03T10:18:44.212Z,11.38
2023-04-03T10:21:27.568Z,11.32
2023-04-03T10:24:04.204Z,11.33
2023-04-03T10:27:10.513Z,11.26
2023-04-03T10:29:56.906Z,11.28
2023-04-03T10:32:45.757Z,11.34
2023-04-03T10:35:50.901Z,11.37
2023-04-03T10:38:38.858Z,11.42
2023-04-03T10:41:31.132Z,11.39
2023-04-03T10:44:20.785Z,11.34
2023-04-03T10:46:54.296Z,11.33
2023-04-03T10:49:31.475Z,11.29
2023-04-03T10:52:07.419Z,11.20
2023-04-03T10:54:43.474Z,11.16
2023-04-03T10:57:15.871Z,11.12
2023-04-03T10:59:47.847Z,11.14
2023-04-03T11:02:30.440Z,11.17
2023-04-03T11:05:10.850Z,11.18
2023-04-03T11:07:42.118Z,11.14
2023-04-03T11:10:15.862Z,11.18
2023-04-03T11:12:49.444Z,11.24
2023-04-03T11:15:21.914Z,11.26
2023-04-03T11:17:57.332Z,11.18
2023-04-03T11:20:28.969Z,11.16
2023-04-03T11:23:20.815Z,11.16
2023-04-03T11:25:52.516Z,11.03
2023-04-03T11:28:21.632Z,11.03
2023-04-03T11:31:27.470Z,10.97
2023-04-03T11:34:16.288Z,11.00
2023-04-03T11:36:50.217Z,11.03
2023-04-03T11:39:28.469Z,10.96
2023-04-03T11:42:06.602Z,10.91
2023-04-03T11:44:42.516Z,10.88
2023-04-03T11:47:13.358Z,10.76
2023-04-03T11:50:02.119Z,10.74
2023-04-03T11:52:42.279Z,10.66
2023-04-03T11:55:23.289Z,10.56
2023-04-03T11:57:58.207Z,10.49
2023-04-03T12:00:44.781Z,10.43
2023-04-03T12:03:30.097Z,10.35
2023-04-03T12:06:08.036Z,10.24
2023-04-03T12:08:42.987Z,10.11
2023-04-03T12:11:11.391Z,10.00
2023-04-03T12:13:51.828Z,9.95
2023-04-03T12:16:23.980Z,9.87
2023-04-03T12:19:16.257Z,9.78
2023-04-03T12:21:47.461Z,9.76
2023-04-03T12:24:19.006Z,9.80
2023-04-03T12:27:22.826Z,9.78
2023-04-03T12:29:55.788Z,9.78
2023-04-03T12:32:37.737Z,9.79
2023-04-03T12:35:15.502Z,9.79
2023-04-03T12:37:43.551Z,9.83
2023-04-03T12:40:39.295Z,9.79
2023-04-03T12:43:29.378Z,9.79
2023-04-03T12:46:09.544Z,9.76
2023-04-03T12:48:49.896Z,9.69
2023-04-03T12:51:23.590Z,9.65
2023-04-03T12:54:03.123Z,9.71
2023-04-03T12:56:33.562Z,9.77
2023-04-03T12:59:24.972Z,9.77
2023-04-03T13:01:58.645Z,9.76
2023-04-03T13:04:32.126Z,9.67
2023-04-03T13:07:01.000Z,9.54
2023-04-03T13:09:36.940Z,9.46
2023-04-03T13:12:12.459Z,9.48
2023-04-03T13:14:42.105Z,9.57
2023-04-03T13:17:17.283Z,9.61
2023-04-03T13:19:47.666Z,9.62
2023-04-03T13:22:33.160Z,9.59
2023-04-03T13:25:04.101Z,9.51
2023-04-03T13:27:33.004Z,9.51
2023-04-03T13:30:02.740Z,9.56
2023-04-03T13:32:35.364Z,9.51
2023-04-03T13:35:17.926Z,9.41
2023-04-03T13:38:20.398Z,9.33
2023-04-03T13:40:53.157Z,9.24
2023-04-03T13:43:26.411Z,9.12
2023-04-03T13:46:05.979Z,9.05
2023-04-03T13:48:42.572Z,9.02
2023-04-03T13:51:14.111Z,9.02
2023-04-03T13:53:44.851Z,8.97
2023-04-03T13:56:45.195Z,8.94
2023-04-03T13:59:13.255Z,8.92
2023-04-03T14:01:46.716Z,8.93
2023-04-03T14:04:24.403Z,8.98
2023-04-03T14:06:52.772Z,8.97
2023-04-03T14:09:22.749Z,8.96
2023-04-03T14:11:53.417Z,8.93
2023-04-03T14:14:27.744Z,8.88
2023-04-03T14:17:01.047Z,8.93
2023-04-03T14:19:32.884Z,8.95
2023-04-03T14:22:14.411Z,8.84
2023-04-03T14:24:45.662Z,8.75
2023-04-03T14:27:22.027Z,8.68
2023-04-03T14:29:50.905Z,8.61
2023-04-03T14:32:20.044Z,8.53
2023-04-03T14:34:48.582Z,8.43
2023-04-03T14:37:19.354Z,8.30
2023-04-03T14:39:47.554Z,8.23
2023-04-03T14:42:23.280Z,8.20
2023-04-03T14:44:51.593Z,8.15
2023-04-03T14:47:31.211Z,8.09
2023-04-03T14:50:01.216Z,8.10
2023-04-03T14:52:35.728Z,8.12
2023-04-03T14:55:05.411Z,8.16
2023-04-03T14:57:33.695Z,8.18
2023-04-03T15:00:03.112Z,8.18
2023-04-03T15:02:38.619Z,8.20
2023-04-03T15:05:09.153Z,8.21
2023-04-03T15:07:39.995Z,8.15
2023-04-03T15:10:17.045Z,8.14
2023-04-03T15:12:46.127Z,8.18
2023-04-03T15:15:15.297Z,8.22
2023-04-03T15:17:43.652Z,8.19
2023-04-03T15:20:19.973Z,7.98
2023-04-03T15:22:48.123Z,7.76
2023-04-03T15:25:16.609Z,7.63
2023-04-03T15:27:45.671Z,7.55
2023-04-03T15:30:19.244Z,7.54
2023-04-03T15:32:47.705Z,7.48
2023-04-03T15:35:16.293Z,7.47
2023-04-03T15:37:46.420Z,7.53
2023-04-03T15:40:14.395Z,7.49
2023-04-03T15:42:43.738Z,7.43
2023-04-03T15:45:11.959Z,7.36
2023-04-03T15:47:40.450Z,7.30
2023-04-03T15:50:09.268Z,7.26
2023-04-03T15:52:40.801Z,7.25
2023-04-03T15:55:09.455Z,7.27
2023-04-03T16:00:11.554Z,7.41
2023-04-03T16:02:40.886Z,7.46
2023-04-03T16:05:10.340Z,7.48
2023-04-03T16:07:39.931Z,7.42
2023-04-03T16:10:09.866Z,7.34
2023-04-03T16:12:38.849Z,7.35
2023-04-03T16:15:07.400Z,7.35
2023-04-03T16:17:35.820Z,7.40
2023-04-03T16:20:05.302Z,7.45
2023-04-03T16:22:33.304Z,7.41
2023-04-03T16:25:01.481Z,7.35
2023-04-03T16:27:31.969Z,7.29
2023-04-03T16:30:00.165Z,7.25
2023-04-03T16:32:30.362Z,7.27
2023-04-03T16:34:58.961Z,7.25
2023-04-03T16:37:27.965Z,7.18
2023-04-03T16:39:58.005Z,7.10
2023-04-03T16:42:26.456Z,7.01
2023-04-03T16:44:54.672Z,6.89
2023-04-03T16:47:24.871Z,6.78
2023-04-03T16:49:53.040Z,6.66
2023-04-03T16:52:21.646Z,6.65
2023-04-03T16:54:49.581Z,6.58
2023-04-03T16:57:17.840Z,6.54
2023-04-03T16:59:45.815Z,6.60
2023-04-03T17:02:13.823Z,6.60
2023-04-03T17:04:42.562Z,6.60
2023-04-03T17:07:10.973Z,6.55
2023-04-03T17:09:39.447Z,6.48
2023-04-03T17:12:07.439Z,6.51
2023-04-03T17:14:35.953Z,6.52
2023-04-03T17:17:04.120Z,6.56
2023-04-03T17:19:35.380Z,6.64
2023-04-03T17:22:03.400Z,6.59
2023-04-03T17:24:31.577Z,6.50
2023-04-03T17:27:00.257Z,6.43
2023-04-03T17:29:32.574Z,6.35
2023-04-03T17:32:01.001Z,6.29
2023-04-03T17:34:29.110Z,6.22
2023-04-03T17:36:57.847Z,6.20
2023-04-03T17:39:25.950Z,6.20
2023-04-03T17:41:55.189Z,6.22
2023-04-03T17:44:23.363Z,6.25
2023-04-03T17:46:51.538Z,6.19
2023-04-03T17:49:20.761Z,6.06
2023-04-03T17:51:48.723Z,6.01
2023-04-03T17:54:17.176Z,5.96
2023-04-03T17:56:48.299Z,5.99
2023-04-03T17:59:16.982Z,6.06
2023-04-03T18:01:46.892Z,6.05
2023-04-03T18:04:15.141Z,6.02
2023-04-03T18:06:45.950Z,6.01
2023-04-03T18:09:21.197Z,6.04
2023-04-03T18:11:49.336Z,6.07
2023-04-03T18:14:19.975Z,6.11
2023-04-03T18:16:48.567Z,6.11
2023-04-03T18:21:49.935Z,6.03
2023-04-03T18:24:19.096Z,5.99
2023-04-03T18:26:51.270Z,6.00
2023-04-03T18:29:19.868Z,6.07
2023-04-03T18:31:49.744Z,6.08
2023-04-03T18:34:18.080Z,6.07
2023-04-03T18:36:46.839Z,6.00
2023-04-03T18:39:22.342Z,5.94
2023-04-03T18:41:52.136Z,5.99
2023-04-03T18:44:21.327Z,6.00
2023-04-03T18:46:49.341Z,5.94
2023-04-03T18:49:18.347Z,5.97
2023-04-03T18:51:47.295Z,6.03
2023-04-03T18:54:16.413Z,6.11
2023-04-03T18:56:45.269Z,6.13
2023-04-03T18:59:17.067Z,6.11
2023-04-03T19:01:45.425Z,6.09
2023-04-03T19:04:13.585Z,6.09
2023-04-03T19:06:41.771Z,6.08
2023-04-03T19:09:09.996Z,6.11
2023-04-03T19:11:38.333Z,6.19
2023-04-03T19:14:16.592Z,6.23
2023-04-03T19:16:45.683Z,6.23
2023-04-03T19:19:13.822Z,6.18
2023-04-03T19:21:42.833Z,6.11
2023-04-03T19:24:12.385Z,6.01
2023-04-03T19:26:46.249Z,5.94
2023-04-03T19:30:41.118Z,5.95
2023-04-03T19:33:10.781Z,5.95
2023-04-03T19:35:42.390Z,6.00
2023-04-03T19:38:10.548Z,5.93
2023-04-03T19:40:43.693Z,5.83
2023-04-03T19:43:12.827Z,5.84
2023-04-03T19:45:42.178Z,5.84
2023-04-03T19:48:10.948Z,5.77
2023-04-03T19:50:38.992Z,5.69
2023-04-03T19:53:08.738Z,5.68
2023-04-03T19:55:36.890Z,5.68
2023-04-03T19:58:05.839Z,5.72
2023-04-03T20:00:34.142Z,5.73
2023-04-03T20:03:06.311Z,5.69
2023-04-03T20:05:35.077Z,5.70
2023-04-03T20:08:03.575Z,5.71
2023-04-03T20:10:31.888Z,5.74
2023-04-03T20:13:00.454Z,5.83
2023-04-03T20:15:30.493Z,5.95
2023-04-03T20:17:58.451Z,5.99
2023-04-03T20:20:27.636Z,5.89
2023-04-03T20:22:57.098Z,5.81
2023-04-03T20:27:57.548Z,5.83
2023-04-03T20:30:25.628Z,5.86
2023-04-03T20:32:59.434Z,5.83
2023-04-03T20:35:28.665Z,5.79
2023-04-03T20:37:57.910Z,5.65
2023-04-03T20:40:26.342Z,5.59
2023-04-03T20:42:54.981Z,5.58
2023-04-03T20:45:23.257Z,5.60
2023-04-03T20:47:54.008Z,5.62
2023-04-03T20:50:22.568Z,5.59
2023-04-03T20:52:50.714Z,5.59
2023-04-03T20:55:18.691Z,5.61
2023-04-03T20:57:54.064Z,5.66
2023-04-03T21:00:23.960Z,5.76
2023-04-03T21:02:56.427Z,5.81
2023-04-03T21:05:26.390Z,5.86
2023-04-03T21:08:33.507Z,5.95
2023-04-03T21:11:39.639Z,6.04
2023-04-03T21:14:48.523Z,6.07
2023-04-03T21:17:16.623Z,6.00
2023-04-03T21:19:48.864Z,6.03
2023-04-03T21:22:16.959Z,6.03
2023-04-03T21:24:44.949Z,5.94
2023-04-03T21:27:12.972Z,5.88
2023-04-03T21:29:41.706Z,5.83
2023-04-03T21:32:12.397Z,5.83
2023-04-03T21:34:40.934Z,5.83
2023-04-03T21:37:09.626Z,5.79
2023-04-03T21:39:47.504Z,5.77
2023-04-03T21:42:15.621Z,5.69
2023-04-03T21:44:43.916Z,5.67
2023-04-03T21:47:12.542Z,5.70
2023-04-03T21:49:41.727Z,5.62
2023-04-03T21:52:09.698Z,5.52
2023-04-03T21:54:38.373Z,5.40
2023-04-03T21:57:06.353Z,5.24
2023-04-03T21:59:35.043Z,5.23
2023-04-03T22:02:03.340Z,5.13
2023-04-03T22:04:31.885Z,4.99
2023-04-03T22:07:00.120Z,5.02
2023-04-03T22:09:28.196Z,5.05
2023-04-03T22:11:57.170Z,5.12
2023-04-03T22:14:26.301Z,5.26
2023-04-03T22:16:54.992Z,5.35
2023-04-03T22:19:23.675Z,5.34
2023-04-03T22:21:56.088Z,5.36
2023-04-03T22:24:24.234Z,5.37
2023-04-03T22:26:52.721Z,5.43
2023-04-03T22:29:20.854Z,5.47
2023-04-03T22:31:48.863Z,5.49
2023-04-03T22:34:17.170Z,5.48
2023-04-03T22:36:45.705Z,5.45
2023-04-03T22:39:16.496Z,5.37
2023-04-03T22:41:45.327Z,5.35
2023-04-03T22:44:14.007Z,5.44
2023-04-03T22:46:42.771Z,5.46
2023-04-03T22:49:11.182Z,5.41
2023-04-03T22:51:39.324Z,5.36
2023-04-03T22:54:08.328Z,5.27
2023-04-03T22:56:36.639Z,5.16
2023-04-03T22:59:05.670Z,5.16
2023-04-03T23:01:35.537Z,5.22
2023-04-03T23:04:05.605Z,5.22
2023-04-03T23:06:34.347Z,5.19
2023-04-03T23:09:02.463Z,5.21
2023-04-03T23:11:30.885Z,5.22
2023-04-03T23:13:59.874Z,5.15
2023-04-03T23:16:28.719Z,5.13
2023-04-03T23:18:56.949Z,5.10
2023-04-03T23:21:26.319Z,5.18
2023-04-03T23:23:54.461Z,5.21
2023-04-03T23:26:22.603Z,5.18
2023-04-03T23:28:51.347Z,5.22
2023-04-03T23:31:19.238Z,5.34
2023-04-03T23:33:47.571Z,5.34
2023-04-03T23:36:16.289Z,5.39
2023-04-03T23:38:46.702Z,5.46
2023-04-03T23:41:14.982Z,5.50
2023-04-03T23:43:43.482Z,5.50
2023-04-03T23:46:11.483Z,5.54
2023-04-03T23:48:39.838Z,5.59
2023-04-03T23:51:13.920Z,5.55
2023-04-03T23:53:42.290Z,5.51
2023-04-03T23:56:12.678Z,5.50
2023-04-03T23:58:40.774Z,5.44
